createdAt,value
2023-05-11T00:01:06.939Z,16.87
2023-05-11T00:03:34.581Z,15.80
2023-05-11T00:06:02.076Z,13.75
2023-05-11T00:08:29.471Z,16.88
2023-05-11T00:10:56.851Z,18.40
2023-05-11T00:13:24.155Z,19.90
2023-05-11T00:15:51.461Z,15.85
2023-05-11T00:18:18.832Z,16.80
2023-05-11T00:20:46.435Z,17.63
2023-05-11T00:23:13.797Z,17.23
2023-05-11T00:25:41.342Z,20.10
2023-05-11T00:28:10.236Z,19.27
2023-05-11T00:30:37.601Z,21.38
2023-05-11T00:33:05.176Z,20.65
2023-05-11T00:35:32.801Z,22.27
2023-05-11T00:38:00.471Z,18.00
2023-05-11T00:40:27.847Z,21.65
2023-05-11T00:42:55.148Z,20.10
2023-05-11T00:45:22.399Z,18.48
2023-05-11T00:47:49.730Z,19.77
2023-05-11T00:50:20.906Z,21.97
2023-05-11T00:52:48.512Z,19.83
2023-05-11T00:55:17.077Z,21.13
2023-05-11T00:57:44.374Z,22.38
2023-05-11T01:00:12.114Z,22.25
2023-05-11T01:02:39.845Z,19.67
2023-05-11T01:05:08.795Z,21.38
2023-05-11T01:07:42.720Z,22.02
2023-05-11T01:10:20.589Z,19.98
2023-05-11T01:12:54.339Z,21.50
2023-05-11T01:15:27.893Z,23.97
2023-05-11T01:17:58.813Z,22.80
2023-05-11T01:20:30.180Z,22.98
2023-05-11T01:23:16.320Z,20.80
2023-05-11T01:26:02.487Z,21.83
2023-05-11T01:28:48.200Z,22.27
2023-05-11T01:31:16.495Z,20.65
2023-05-11T01:33:49.718Z,22.90
2023-05-11T01:36:17.510Z,22.00
2023-05-11T01:38:47.066Z,19.60
2023-05-11T01:41:15.876Z,18.30
2023-05-11T01:43:44.981Z,23.30
2023-05-11T01:46:13.217Z,23.48
2023-05-11T01:48:41.668Z,20.92
2023-05-11T01:51:10.208Z,21.75
2023-05-11T01:53:38.543Z,22.60
2023-05-11T01:56:07.267Z,21.73
2023-05-11T01:58:36.969Z,19.67
2023-05-11T02:01:04.834Z,20.77
2023-05-11T02:03:33.501Z,21.50
2023-05-11T02:06:01.665Z,21.20
2023-05-11T02:08:30.661Z,20.98
2023-05-11T02:10:58.892Z,21.70
2023-05-11T02:13:27.492Z,24.63
2023-05-11T02:15:56.600Z,24.20
2023-05-11T02:18:24.106Z,22.33
2023-05-11T02:20:59.669Z,21.95
2023-05-11T02:23:27.811Z,23.23
2023-05-11T02:25:56.049Z,25.00
2023-05-11T02:28:23.447Z,27.33
2023-05-11T02:30:53.039Z,28.40
2023-05-11T02:33:22.628Z,24.58
2023-05-11T02:35:52.004Z,22.33
2023-05-11T02:38:20.276Z,23.55
2023-05-11T02:40:49.118Z,21.88
2023-05-11T02:43:21.358Z,22.27
2023-05-11T02:45:55.068Z,22.45
2023-05-11T02:48:23.999Z,23.27
2023-05-11T02:50:53.226Z,21.92
2023-05-11T02:53:20.771Z,26.00
2023-05-11T02:55:48.389Z,22.63
2023-05-11T02:58:16.589Z,24.80
2023-05-11T03:00:47.263Z,24.73
2023-05-11T03:03:15.073Z,24.92
2023-05-11T03:05:42.679Z,26.15
2023-05-11T03:08:10.029Z,27.90
2023-05-11T03:10:37.341Z,26.80
2023-05-11T03:13:04.928Z,22.10
2023-05-11T03:15:33.425Z,23.45
2023-05-11T03:18:02.823Z,26.90
2023-05-11T03:20:31.318Z,24.83
2023-05-11T03:22:58.954Z,23.60
2023-05-11T03:25:29.100Z,23.60
2023-05-11T03:27:57.664Z,20.63
2023-05-11T03:30:26.182Z,26.40
2023-05-11T03:32:56.263Z,23.23
2023-05-11T03:35:26.339Z,23.35
2023-05-11T03:37:54.461Z,24.55
2023-05-11T03:40:22.815Z,25.48
2023-05-11T03:42:55.562Z,24.73
2023-05-11T03:45:24.289Z,25.07
2023-05-11T03:47:52.759Z,24.90
2023-05-11T03:50:20.652Z,22.20
2023-05-11T03:52:48.702Z,20.92
2023-05-11T03:55:16.425Z,22.27
2023-05-11T03:57:43.993Z,22.03
2023-05-11T04:00:11.785Z,20.58
2023-05-11T04:02:46.002Z,21.52
2023-05-11T04:05:13.784Z,21.85
2023-05-11T04:07:43.591Z,20.23
2023-05-11T04:10:11.217Z,22.27
2023-05-11T04:12:38.487Z,19.83
2023-05-11T04:15:06.736Z,19.98
2023-05-11T04:17:34.117Z,16.95
2023-05-11T04:20:01.454Z,19.65
2023-05-11T04:22:28.733Z,20.03
2023-05-11T04:24:56.379Z,19.75
2023-05-11T04:27:24.008Z,19.52
2023-05-11T04:29:51.394Z,21.42
2023-05-11T04:32:18.830Z,20.20
2023-05-11T04:34:46.389Z,21.07
2023-05-11T04:37:13.854Z,20.67
2023-05-11T04:39:42.410Z,21.38
2023-05-11T04:42:09.835Z,20.70
2023-05-11T04:44:37.704Z,23.63
2023-05-11T04:47:05.141Z,22.13
2023-05-11T04:49:32.592Z,21.40
2023-05-11T04:52:00.013Z,20.38
2023-05-11T04:54:27.481Z,22.92
2023-05-11T04:56:55.740Z,23.33
2023-05-11T04:59:23.427Z,23.13
2023-05-11T05:01:51.174Z,22.13
2023-05-11T05:04:18.566Z,21.65
2023-05-11T05:06:46.416Z,21.02
2023-05-11T05:09:16.362Z,26.38
2023-05-11T05:11:43.726Z,22.63
2023-05-11T05:14:11.187Z,21.50
2023-05-11T05:16:38.500Z,28.40
2023-05-11T05:19:05.997Z,23.67
2023-05-11T05:21:35.884Z,29.30
2023-05-11T05:24:06.891Z,28.60
2023-05-11T05:26:34.236Z,24.70
2023-05-11T05:29:01.852Z,28.95
2023-05-11T05:31:30.753Z,24.92
2023-05-11T05:33:58.276Z,24.40
2023-05-11T05:36:25.810Z,25.83
2023-05-11T05:38:53.287Z,25.35
2023-05-11T05:41:22.279Z,27.02
2023-05-11T05:43:49.797Z,32.17
2023-05-11T05:46:17.499Z,35.08
2023-05-11T05:48:44.872Z,35.17
2023-05-11T05:51:12.185Z,30.17
2023-05-11T05:53:39.585Z,36.10
2023-05-11T05:56:07.010Z,30.45
2023-05-11T05:58:34.418Z,35.55
2023-05-11T06:01:01.803Z,34.70
2023-05-11T06:03:30.002Z,37.72
2023-05-11T06:05:57.712Z,33.95
2023-05-11T06:08:25.297Z,35.17
2023-05-11T06:10:52.646Z,36.42
2023-05-11T06:13:20.026Z,39.63
2023-05-11T06:15:47.873Z,32.20
2023-05-11T06:18:27.758Z,35.33
2023-05-11T06:20:55.713Z,33.45
2023-05-11T06:23:25.873Z,31.40
2023-05-11T06:25:53.799Z,29.37
2023-05-11T06:28:24.460Z,34.35
2023-05-11T06:30:59.037Z,29.45
2023-05-11T06:33:28.463Z,35.88
2023-05-11T06:35:56.634Z,33.72
2023-05-11T06:38:26.372Z,35.57
2023-05-11T06:40:54.145Z,33.97
2023-05-11T06:43:21.663Z,35.60
2023-05-11T06:45:49.583Z,32.65
2023-05-11T06:48:17.512Z,27.88
2023-05-11T06:50:44.904Z,26.47
2023-05-11T06:53:17.143Z,27.35
2023-05-11T06:55:44.853Z,23.85
2023-05-11T06:58:12.286Z,24.63
2023-05-11T07:00:39.801Z,10.20
2023-05-11T07:03:07.657Z,12.13
2023-05-11T07:05:37.060Z,16.33
2023-05-11T07:08:04.987Z,17.05
2023-05-11T07:10:32.631Z,19.50
2023-05-11T07:12:59.990Z,20.55
2023-05-11T07:15:27.371Z,17.03
2023-05-11T07:17:54.761Z,18.80
2023-05-11T07:20:22.115Z,18.70
2023-05-11T07:22:49.407Z,18.67
2023-05-11T07:25:16.730Z,16.00
2023-05-11T07:27:44.532Z,15.73
2023-05-11T07:30:12.114Z,15.88
2023-05-11T07:32:39.398Z,18.70
2023-05-11T07:35:07.829Z,15.23
2023-05-11T07:37:35.323Z,14.27
2023-05-11T07:40:02.747Z,10.07
2023-05-11T07:42:30.269Z,12.18
2023-05-11T07:44:57.560Z,14.95
2023-05-11T07:47:25.362Z,14.70
2023-05-11T07:49:52.791Z,16.52
2023-05-11T07:52:20.154Z,10.97
2023-05-11T07:54:47.446Z,14.82
2023-05-11T07:57:14.752Z,11.88
2023-05-11T07:59:42.211Z,10.68
2023-05-11T08:02:12.252Z,9.57
2023-05-11T08:04:40.783Z,9.37
2023-05-11T08:07:08.986Z,8.07
2023-05-11T08:09:36.899Z,10.20
2023-05-11T08:12:04.678Z,11.15
2023-05-11T08:14:32.320Z,9.50
2023-05-11T08:16:59.646Z,9.90
2023-05-11T08:19:26.925Z,7.88
2023-05-11T08:21:54.422Z,9.48
2023-05-11T08:24:21.749Z,10.63
2023-05-11T08:26:49.053Z,10.35
2023-05-11T08:29:16.372Z,9.07
2023-05-11T08:31:43.940Z,9.65
2023-05-11T08:36:41.744Z,11.40
2023-05-11T08:39:09.250Z,11.80
2023-05-11T08:41:36.540Z,12.77
2023-05-11T08:44:04.674Z,10.80
2023-05-11T08:46:35.689Z,10.32
2023-05-11T08:49:03.357Z,11.15
2023-05-11T08:51:30.773Z,12.70
2023-05-11T08:53:59.824Z,11.33
2023-05-11T08:56:27.864Z,11.35
2023-05-11T08:58:56.824Z,10.48
2023-05-11T09:01:24.577Z,9.07
2023-05-11T09:03:52.467Z,8.65
2023-05-11T09:06:20.719Z,10.93
2023-05-11T09:08:48.174Z,9.88
2023-05-11T09:11:15.588Z,10.65
2023-05-11T09:13:43.127Z,9.98
2023-05-11T09:16:20.522Z,10.90
2023-05-11T09:19:02.006Z,10.93
2023-05-11T09:21:31.227Z,11.73
2023-05-11T09:24:01.736Z,9.73
2023-05-11T09:26:29.849Z,9.10
2023-05-11T09:29:02.938Z,11.13
2023-05-11T09:31:57.486Z,10.27
2023-05-11T09:34:24.797Z,8.60
2023-05-11T09:36:53.121Z,11.60
2023-05-11T09:39:44.768Z,8.65
2023-05-11T09:42:23.980Z,8.45
2023-05-11T09:44:51.353Z,9.57
2023-05-11T09:47:19.733Z,11.65
2023-05-11T09:49:48.056Z,13.82
2023-05-11T09:52:17.492Z,10.13
2023-05-11T09:54:48.928Z,11.07
2023-05-11T09:57:25.754Z,12.33
2023-05-11T09:59:53.601Z,12.35
2023-05-11T10:02:28.563Z,12.27
2023-05-11T10:04:57.148Z,12.35
2023-05-11T10:07:34.591Z,12.02
2023-05-11T10:10:06.303Z,11.50
2023-05-11T10:12:34.130Z,10.63
2023-05-11T10:15:05.741Z,10.80
2023-05-11T10:17:33.558Z,10.93
2023-05-11T10:20:01.827Z,9.52
2023-05-11T10:22:29.902Z,7.97
2023-05-11T10:24:57.922Z,9.68
2023-05-11T10:27:25.692Z,7.45
2023-05-11T10:29:52.971Z,10.13
2023-05-11T10:32:21.033Z,8.65
2023-05-11T10:34:50.518Z,7.80
2023-05-11T10:37:18.557Z,9.23
2023-05-11T10:39:48.575Z,9.63
2023-05-11T10:42:37.428Z,11.55
2023-05-11T10:45:17.011Z,11.25
2023-05-11T10:48:03.253Z,10.03
2023-05-11T10:50:41.484Z,10.27
2023-05-11T10:53:13.353Z,11.13
2023-05-11T10:55:47.109Z,11.50
2023-05-11T10:58:16.691Z,11.90
2023-05-11T11:00:50.005Z,12.40
2023-05-11T11:03:17.446Z,12.27
2023-05-11T11:05:45.372Z,12.95
2023-05-11T11:08:12.947Z,14.02
2023-05-11T11:10:43.876Z,13.23
2023-05-11T11:13:12.094Z,14.07
2023-05-11T11:15:55.056Z,14.73
2023-05-11T11:18:26.079Z,12.90
2023-05-11T11:20:54.284Z,16.23
2023-05-11T11:23:40.730Z,12.32
2023-05-11T11:26:08.635Z,12.50
2023-05-11T11:28:54.861Z,9.85
2023-05-11T11:31:30.583Z,10.02
2023-05-11T11:34:00.806Z,10.75
2023-05-11T11:36:46.730Z,9.32
2023-05-11T11:39:14.249Z,11.20
2023-05-11T11:41:41.676Z,9.13
2023-05-11T11:44:21.842Z,7.60
2023-05-11T11:47:09.052Z,6.78
2023-05-11T11:49:36.566Z,6.78
2023-05-11T11:52:04.330Z,6.47
2023-05-11T11:54:41.477Z,5.82
2023-05-11T11:57:27.578Z,7.70
2023-05-11T11:59:55.134Z,5.40
2023-05-11T12:02:23.504Z,7.28
2023-05-11T12:04:58.414Z,6.47
2023-05-11T12:07:26.481Z,7.28
2023-05-11T12:09:54.038Z,8.52
2023-05-11T12:12:21.454Z,7.80
2023-05-11T12:14:49.461Z,6.63
2023-05-11T12:17:23.976Z,7.43
2023-05-11T12:19:51.453Z,7.25
2023-05-11T12:22:25.644Z,9.02
2023-05-11T12:24:59.526Z,10.43
2023-05-11T12:27:27.698Z,9.57
2023-05-11T12:29:54.989Z,12.23
2023-05-11T12:32:32.354Z,8.82
2023-05-11T12:35:01.286Z,8.20
2023-05-11T12:37:29.997Z,9.02
2023-05-11T12:39:57.900Z,10.18
2023-05-11T12:42:25.391Z,7.73
2023-05-11T12:44:52.748Z,5.97
2023-05-11T12:47:20.127Z,6.10
2023-05-11T12:49:47.554Z,6.03
2023-05-11T12:52:15.037Z,6.18
2023-05-11T12:54:43.549Z,5.30
2023-05-11T12:57:31.771Z,5.18
2023-05-11T13:00:08.629Z,4.75
2023-05-11T13:02:36.253Z,9.32
2023-05-11T13:05:13.609Z,6.05
2023-05-11T13:07:41.338Z,8.07
2023-05-11T13:10:08.858Z,9.35
2023-05-11T13:12:36.272Z,7.78
2023-05-11T13:15:07.846Z,6.32
2023-05-11T13:17:36.748Z,5.85
2023-05-11T13:20:16.511Z,6.80
2023-05-11T13:22:44.142Z,7.15
2023-05-11T13:25:11.447Z,5.35
2023-05-11T13:27:39.027Z,5.78
2023-05-11T13:30:06.733Z,7.15
2023-05-11T13:32:34.150Z,5.80
2023-05-11T13:35:07.765Z,4.55
2023-05-11T13:37:35.113Z,4.72
2023-05-11T13:40:02.391Z,4.95
2023-05-11T13:42:29.852Z,4.75
2023-05-11T13:44:57.208Z,5.20
2023-05-11T13:47:24.754Z,4.45
2023-05-11T13:49:54.780Z,4.47
2023-05-11T13:52:22.432Z,4.70
2023-05-11T13:54:50.000Z,4.55
2023-05-11T13:57:17.756Z,4.37
2023-05-11T13:59:45.070Z,4.07
2023-05-11T14:02:12.750Z,4.18
2023-05-11T14:04:40.505Z,4.78
2023-05-11T14:07:08.135Z,4.32
2023-05-11T14:09:37.107Z,4.80
2023-05-11T14:12:04.576Z,4.95
2023-05-11T14:14:31.913Z,5.10
2023-05-11T14:16:59.355Z,5.63
2023-05-11T14:19:27.334Z,5.20
2023-05-11T14:21:54.715Z,4.87
2023-05-11T14:24:22.678Z,5.00
2023-05-11T14:26:49.973Z,4.78
2023-05-11T14:29:17.443Z,7.80
2023-05-11T14:31:45.342Z,5.00
2023-05-11T14:34:12.671Z,7.10
2023-05-11T14:36:40.238Z,6.72
2023-05-11T14:39:07.687Z,5.53
2023-05-11T14:41:35.013Z,5.13
2023-05-11T14:44:02.345Z,4.50
2023-05-11T14:46:29.750Z,4.37
2023-05-11T14:48:57.144Z,4.40
2023-05-11T14:51:24.415Z,4.32
2023-05-11T14:53:52.377Z,4.05
2023-05-11T14:56:19.848Z,4.13
2023-05-11T14:58:47.215Z,4.37
2023-05-11T15:01:14.522Z,4.72
2023-05-11T15:03:42.149Z,4.85
2023-05-11T15:06:09.471Z,6.15
2023-05-11T15:08:36.854Z,6.65
2023-05-11T15:11:04.151Z,5.27
2023-05-11T15:13:31.421Z,5.38
2023-05-11T15:15:58.757Z,5.28
2023-05-11T15:18:26.121Z,5.60
2023-05-11T15:20:53.488Z,4.50
2023-05-11T15:23:20.804Z,5.37
2023-05-11T15:25:48.406Z,5.53
2023-05-11T15:28:16.240Z,4.95
2023-05-11T15:30:43.556Z,5.40
2023-05-11T15:33:11.231Z,5.18
2023-05-11T15:35:38.839Z,5.27
2023-05-11T15:38:06.484Z,5.72
2023-05-11T15:40:34.023Z,5.32
2023-05-11T15:43:01.468Z,5.45
2023-05-11T15:45:29.583Z,6.80
2023-05-11T15:47:58.264Z,6.27
2023-05-11T15:50:26.295Z,9.52
2023-05-11T15:52:53.623Z,14.98
2023-05-11T15:55:21.102Z,7.32
2023-05-11T15:57:48.391Z,7.93
2023-05-11T16:00:16.737Z,7.03
2023-05-11T16:02:45.854Z,8.32
2023-05-11T16:05:13.335Z,9.10
2023-05-11T16:07:41.072Z,9.77
2023-05-11T16:10:08.892Z,7.82
2023-05-11T16:12:36.192Z,6.47
2023-05-11T16:15:03.614Z,7.65
2023-05-11T16:17:30.977Z,5.90
2023-05-11T16:20:00.362Z,7.35
2023-05-11T16:22:28.136Z,7.75
2023-05-11T16:24:55.439Z,6.40
2023-05-11T16:27:25.877Z,7.85
2023-05-11T16:29:53.233Z,7.95
2023-05-11T16:32:20.800Z,6.75
2023-05-11T16:34:48.129Z,6.00
2023-05-11T16:37:15.649Z,9.10
2023-05-11T16:39:43.175Z,9.18
2023-05-11T16:42:10.656Z,7.13
2023-05-11T16:44:37.924Z,8.68
2023-05-11T16:47:05.776Z,13.68
2023-05-11T16:49:33.095Z,9.53
2023-05-11T16:52:00.822Z,8.57
2023-05-11T16:54:28.282Z,7.22
2023-05-11T16:56:55.597Z,9.77
2023-05-11T16:59:22.936Z,7.18
2023-05-11T17:01:50.302Z,8.77
2023-05-11T17:04:17.854Z,8.90
2023-05-11T17:06:45.239Z,7.78
2023-05-11T17:09:12.781Z,8.35
2023-05-11T17:11:40.106Z,6.95
2023-05-11T17:14:07.460Z,6.47
2023-05-11T17:16:34.808Z,6.72
2023-05-11T17:19:02.176Z,8.85
2023-05-11T17:21:29.481Z,8.68
2023-05-11T17:23:56.923Z,7.03
2023-05-11T17:26:27.392Z,6.30
2023-05-11T17:29:00.267Z,5.47
2023-05-11T17:31:27.760Z,5.93
2023-05-11T17:33:55.423Z,5.72
2023-05-11T17:36:22.822Z,5.70
2023-05-11T17:38:51.316Z,4.80
2023-05-11T17:41:18.663Z,5.13
2023-05-11T17:43:47.668Z,4.47
2023-05-11T17:46:16.230Z,5.53
2023-05-11T17:48:43.610Z,4.40
2023-05-11T17:51:10.991Z,4.27
2023-05-11T17:53:38.340Z,5.38
2023-05-11T17:56:08.054Z,5.88
2023-05-11T17:58:35.476Z,6.13
2023-05-11T18:01:08.714Z,8.73
2023-05-11T18:03:36.176Z,5.93
2023-05-11T18:06:03.615Z,4.85
2023-05-11T18:08:31.016Z,4.70
2023-05-11T18:10:58.622Z,4.20
2023-05-11T18:13:26.496Z,7.47
2023-05-11T18:15:53.936Z,5.30
2023-05-11T18:18:22.708Z,5.07
2023-05-11T18:20:50.107Z,5.22
2023-05-11T18:23:17.461Z,5.63
2023-05-11T18:25:44.740Z,6.60
2023-05-11T18:28:12.090Z,6.63
2023-05-11T18:30:39.528Z,5.38
2023-05-11T18:33:06.903Z,6.40
2023-05-11T18:35:34.476Z,6.45
2023-05-11T18:38:04.143Z,5.82
2023-05-11T18:40:31.482Z,4.90
2023-05-11T18:42:58.779Z,4.85
2023-05-11T18:45:28.864Z,6.85
2023-05-11T18:47:56.160Z,4.95
2023-05-11T18:50:23.878Z,5.55
2023-05-11T18:52:51.146Z,4.73
2023-05-11T18:55:18.639Z,5.53
2023-05-11T18:57:46.124Z,5.20
2023-05-11T19:00:13.752Z,6.18
2023-05-11T19:02:41.294Z,7.70
2023-05-11T19:05:08.868Z,5.33
2023-05-11T19:07:36.250Z,5.05
2023-05-11T19:10:04.279Z,5.68
2023-05-11T19:12:31.607Z,9.75
2023-05-11T19:14:58.896Z,5.22
2023-05-11T19:17:26.190Z,5.23
2023-05-11T19:19:53.589Z,3.78
2023-05-11T19:22:21.421Z,4.10
2023-05-11T19:24:48.828Z,5.82
2023-05-11T19:27:16.229Z,10.70
2023-05-11T19:29:43.659Z,6.40
2023-05-11T19:32:11.313Z,7.63
2023-05-11T19:34:38.773Z,8.40
2023-05-11T19:37:07.418Z,5.03
2023-05-11T19:39:34.770Z,6.20
2023-05-11T19:42:02.251Z,10.67
2023-05-11T19:44:33.169Z,5.57
2023-05-11T19:47:00.574Z,5.25
2023-05-11T19:49:28.732Z,5.65
2023-05-11T19:51:56.372Z,5.18
2023-05-11T19:54:23.697Z,5.10
2023-05-11T19:56:50.984Z,5.22
2023-05-11T19:59:18.491Z,4.20
2023-05-11T20:01:46.728Z,5.43
2023-05-11T20:04:14.899Z,4.82
2023-05-11T20:06:42.393Z,5.87
2023-05-11T20:09:09.813Z,5.43
2023-05-11T20:11:37.102Z,6.03
2023-05-11T20:14:05.883Z,6.30
2023-05-11T20:16:33.259Z,8.60
2023-05-11T20:19:00.634Z,6.93
2023-05-11T20:21:28.420Z,4.90
2023-05-11T20:23:55.986Z,5.00
2023-05-11T20:26:23.260Z,4.53
2023-05-11T20:28:50.674Z,4.82
2023-05-11T20:31:18.013Z,4.97
2023-05-11T20:36:16.292Z,4.82
2023-05-11T20:38:43.921Z,5.18
2023-05-11T20:41:11.296Z,4.35
2023-05-11T20:43:39.010Z,6.10
2023-05-11T20:46:07.550Z,5.13
2023-05-11T20:48:40.358Z,4.68
2023-05-11T20:51:08.716Z,5.28
2023-05-11T20:53:36.042Z,7.03
2023-05-11T20:56:03.434Z,4.90
2023-05-11T20:58:31.710Z,4.43
2023-05-11T21:00:59.466Z,5.75
2023-05-11T21:03:27.738Z,5.28
2023-05-11T21:05:55.134Z,5.20
2023-05-11T21:08:22.483Z,5.23
2023-05-11T21:10:49.876Z,5.82
2023-05-11T21:13:17.243Z,5.55
2023-05-11T21:15:44.552Z,6.30
2023-05-11T21:18:11.988Z,5.30
2023-05-11T21:20:39.426Z,6.73
2023-05-11T21:23:06.765Z,5.68
2023-05-11T21:25:34.072Z,5.07
2023-05-11T21:28:01.419Z,4.72
2023-05-11T21:30:28.719Z,5.90
2023-05-11T21:32:56.059Z,5.73
2023-05-11T21:35:23.371Z,5.70
2023-05-11T21:37:50.648Z,5.28
2023-05-11T21:40:18.266Z,5.70
2023-05-11T21:42:46.261Z,5.30
2023-05-11T21:45:13.632Z,6.23
2023-05-11T21:47:40.889Z,5.90
2023-05-11T21:50:08.826Z,6.28
2023-05-11T21:52:37.065Z,7.10
2023-05-11T21:55:04.614Z,7.35
2023-05-11T21:57:31.924Z,6.97
2023-05-11T21:59:59.362Z,6.72
2023-05-11T22:02:26.800Z,6.03
2023-05-11T22:04:54.182Z,6.35
2023-05-11T22:07:24.430Z,6.75
2023-05-11T22:09:51.773Z,6.43
2023-05-11T22:12:19.124Z,7.03
2023-05-11T22:14:46.438Z,6.50
2023-05-11T22:17:13.730Z,6.25
2023-05-11T22:19:41.051Z,7.05
2023-05-11T22:22:08.413Z,7.63
2023-05-11T22:24:35.815Z,5.60
2023-05-11T22:27:03.200Z,6.60
2023-05-11T22:29:30.744Z,6.05
2023-05-11T22:31:58.151Z,6.22
2023-05-11T22:34:25.679Z,6.83
2023-05-11T22:36:53.013Z,6.18
2023-05-11T22:39:21.047Z,7.60
2023-05-11T22:41:48.856Z,6.63
2023-05-11T22:44:17.812Z,8.02
2023-05-11T22:46:45.121Z,6.03
2023-05-11T22:49:12.474Z,6.10
2023-05-11T22:51:39.774Z,6.32
2023-05-11T22:54:07.161Z,6.15
2023-05-11T22:56:34.420Z,5.63
2023-05-11T22:59:01.812Z,6.87
2023-05-11T23:01:29.527Z,6.05
2023-05-11T23:03:56.856Z,4.15
2023-05-11T23:06:24.698Z,5.85
2023-05-11T23:08:52.018Z,5.60
2023-05-11T23:11:19.407Z,5.40
2023-05-11T23:13:46.854Z,4.82
2023-05-11T23:16:14.673Z,5.03
2023-05-11T23:18:42.396Z,4.78
2023-05-11T23:21:09.797Z,4.38
2023-05-11T23:23:37.177Z,6.47
2023-05-11T23:26:04.587Z,4.63
2023-05-11T23:28:31.857Z,5.20
2023-05-11T23:30:59.145Z,4.32
2023-05-11T23:33:27.170Z,7.38
2023-05-11T23:35:57.636Z,7.60
2023-05-11T23:38:25.899Z,5.78
2023-05-11T23:40:53.746Z,5.15
2023-05-11T23:43:22.697Z,5.93
2023-05-11T23:45:49.993Z,3.90
2023-05-11T23:48:17.383Z,6.43
2023-05-11T23:50:44.679Z,9.25
2023-05-11T23:53:12.035Z,4.03
2023-05-11T23:55:39.305Z,3.67
2023-05-11T23:58:06.627Z,4.30
